Terminal Aerodrome Forecast
Issued by NWS Charleston, WV

Current Version | Previous Version | Text Only | Print | Product List | Glossary Off
Versions: 1 2 3 4 5 6 7 8 9 10 11 12 13 14 15 16 17 18 19 20 21 22 23 24 25

000
FTUS41 KRLX 290902 AAA
TAFCRW
TAF AMD
KCRW 290902Z 2909/3006 00000KT 4SM BR SCT001
     FM291300 00000KT 6SM HZ SCT001
     FM291500 00000KT P6SM SCT035
     FM291900 VRB03KT P6SM SCT035
     FM300300 00000KT P6SM BKN040=

USA.gov is the U.S. government's official web portal to all federal, state and local government web resources and services.